Michael S — WDE9794 — position and weather

sailwx.info

Track history (hours):
 
Tides and Currents Weather Stations Pressure Air Temp Water Temp Dewpoint Dewpoint Depression Visibility Wind Speed Wind Dir Waves Ship Positions

Michael S

Owner: Bisso Tow Boats Inc., New Orleans, LA. More information available from US FCC via Universal Licensing System and Coast Guard Vessel Documentation Center.

Last reported at 2014-Dec-20 00:10 UTC. Time now 2014-Dec-21 23:15 UTC.
Position N 29°55' W 090°08'.

Length 33 m; draft 3 m.

Type: Towing. MMSI: 367413700.

Date/timePositionNaut miles runAvg speedWind from/ knotsBaromVisibWave heightAir tempDewpointWater temp
2014-Dec-20 00:10N 29°55' W 090°08'0 0.0
2014-Dec-19 23:22N 29°55' W 090°08'0 0.0
2014-Dec-19 22:32N 29°55' W 090°08'1 0.3
2014-Dec-19 19:24N 29°56' W 090°09'1 0.1
2014-Dec-19 05:22N 29°55' W 090°08'3 4.0
2014-Dec-19 04:33N 29°55' W 090°04'3 0.3
2014-Dec-18 19:24N 29°58' W 090°02'0 0.0
2014-Dec-18 18:33N 29°58' W 090°02'0 0.0
2014-Dec-18 17:33N 29°58' W 090°02'1 1.0
2014-Dec-18 16:27N 29°57' W 090°01'0 0.0
2014-Dec-18 15:05N 29°57' W 090°01'0 0.0
2014-Dec-18 14:29N 29°57' W 090°01'0 0.0
2014-Dec-18 09:20N 29°57' W 090°01'0 0.0
2014-Dec-18 08:26N 29°57' W 090°01'0 0.0
2014-Dec-18 07:20N 29°57' W 090°01'0 0.0
2014-Dec-18 06:20N 29°57' W 090°01'0 0.0
2014-Dec-18 04:11N 29°57' W 090°01'0 0.0
2014-Dec-17 23:20N 29°57' W 090°01'0 0.0
2014-Dec-17 22:32N 29°57' W 090°01'2 0.5
2014-Dec-17 18:33N 29°57' W 090°03'2 0.3
2014-Dec-17 11:23N 29°57' W 090°01'0 0.0
2014-Dec-17 10:19N 29°57' W 090°01'1 0.5
2014-Dec-17 08:03N 29°57' W 089°60'0 0.0
2014-Dec-17 03:33N 29°57' W 089°60'3 0.5
2014-Dec-16 22:28N 29°57' W 090°03'7 2.2
2014-Dec-16 19:28N 29°55' W 089°56'1 0.1
2014-Dec-16 11:17N 29°55' W 089°57'9 0.6
2014-Dec-15 18:33N 29°55' W 090°08'6 0.9
2014-Dec-15 11:18N 29°57' W 090°01'0 0.0
2014-Dec-15 10:27N 29°57' W 090°01'4 1.1
2014-Dec-15 07:03N 29°55' W 089°57'0 0.0
2014-Dec-15 05:33N 29°55' W 089°57'3 0.5
2014-Dec-14 23:33N 29°57' W 090°00'1 0.4
2014-Dec-14 19:33N 29°57' W 090°02'3 2.0
2014-Dec-14 18:10N 29°56' W 089°59'3 0.7
2014-Dec-14 13:15N 29°58' W 090°02'0 0.0
2014-Dec-14 11:14N 29°58' W 090°02'5 0.8
2014-Dec-14 04:17N 29°55' W 089°57'3 1.3
2014-Dec-14 02:08N 29°54' W 089°54'2 0.5
2014-Dec-13 22:17N 29°55' W 089°56'0 0.4
2014-Dec-13 21:21N 29°55' W 089°56'6 1.9
2014-Dec-13 18:21N 29°58' W 090°02'0 0.0
2014-Dec-13 17:24N 29°58' W 090°02'0 0.0
2014-Dec-13 16:33N 29°58' W 090°02'0 0.0
2014-Dec-13 15:27N 29°58' W 090°02'0 0.0
2014-Dec-13 14:33N 29°58' W 090°02'0 0.0
2014-Dec-13 12:21N 29°58' W 090°02'0 0.0
2014-Dec-13 11:03N 29°58' W 090°02'4 8.8
2014-Dec-13 10:33N 29°55' W 089°58'4 2.1
2014-Dec-13 08:30N 29°52' W 089°55'8 8.7
2014-Dec-13 07:32N 29°58' W 090°02'0 0.0
2014-Dec-12 23:21N 29°58' W 090°02'0 0.0
2014-Dec-12 19:21N 29°58' W 090°02'0 0.0
2014-Dec-12 18:15N 29°58' W 090°02'0 0.0
2014-Dec-12 16:03N 29°58' W 090°02'0 0.0
2014-Dec-12 15:06N 29°58' W 090°02'0 0.0
2014-Dec-12 12:27N 29°58' W 090°02'2 0.9
2014-Dec-12 10:29N 29°56' W 090°03'2 1.7
2014-Dec-12 09:27N 29°57' W 090°02'1 0.5
2014-Dec-12 08:15N 29°57' W 090°01'0 0.0
2014-Dec-12 07:33N 29°57' W 090°01'0 0.0
2014-Dec-12 06:27N 29°57' W 090°01'0 0.0
2014-Dec-12 05:27N 29°57' W 090°01'0 0.0
2014-Dec-12 04:15N 29°57' W 090°01'0 0.0
2014-Dec-12 02:06N 29°57' W 090°01'0 0.0
2014-Dec-12 01:12N 29°57' W 090°01'2 0.5
2014-Dec-11 21:04N 29°56' W 089°59'5 1.8
2014-Dec-11 18:21N 29°54' W 089°54'2 0.4
2014-Dec-11 12:14N 29°52' W 089°56'4 5.8
2014-Dec-11 11:33N 29°55' W 089°58'0 0.4
2014-Dec-11 10:21N 29°56' W 089°59'0 0.0
2014-Dec-11 09:21N 29°56' W 089°59'2 2.8
2014-Dec-11 08:31N 29°57' W 090°01'0 0.0
2014-Dec-11 06:22N 29°57' W 090°01'0 0.0
2014-Dec-11 04:13N 29°57' W 090°01'0 0.0
2014-Dec-11 03:19N 29°57' W 090°01'0 0.0
2014-Dec-11 02:28N 29°57' W 090°01'0 0.0
2014-Dec-10 23:07N 29°57' W 090°01'0 0.0
2014-Dec-10 19:09N 29°57' W 090°01'4 2.2
2014-Dec-10 17:16N 29°55' W 089°57'2 2.1
2014-Dec-10 16:30N 29°56' W 089°58'3 0.2
2014-Dec-10 05:18N 29°57' W 090°01'6 2.0
2014-Dec-10 02:26N 29°53' W 089°57'  
Track history (hours):
 
Tides and Currents Weather Stations Pressure Air Temp Water Temp Dewpoint Dewpoint Depression Visibility Wind Speed Wind Dir Waves Ship Positions

Michael S

Owner: Bisso Tow Boats Inc., New Orleans, LA. More information available from US FCC via Universal Licensing System and Coast Guard Vessel Documentation Center.

Last reported at 2014-Dec-20 00:10 UTC. Time now 2014-Dec-21 23:15 UTC.
Position N 29°55' W 090°08'.

Length 33 m; draft 3 m.

Type: Towing. MMSI: 367413700.

Date/timePositionNaut miles runAvg speedWind from/ knotsBaromVisibWave heightAir tempDewpointWater temp
2014-Dec-20 00:10N 29°55' W 090°08'0 0.0
2014-Dec-19 23:22N 29°55' W 090°08'0 0.0
2014-Dec-19 22:32N 29°55' W 090°08'1 0.3
2014-Dec-19 19:24N 29°56' W 090°09'1 0.1
2014-Dec-19 05:22N 29°55' W 090°08'3 4.0
2014-Dec-19 04:33N 29°55' W 090°04'3 0.3
2014-Dec-18 19:24N 29°58' W 090°02'0 0.0
2014-Dec-18 18:33N 29°58' W 090°02'0 0.0
2014-Dec-18 17:33N 29°58' W 090°02'1 1.0
2014-Dec-18 16:27N 29°57' W 090°01'0 0.0
2014-Dec-18 15:05N 29°57' W 090°01'0 0.0
2014-Dec-18 14:29N 29°57' W 090°01'0 0.0
2014-Dec-18 09:20N 29°57' W 090°01'0 0.0
2014-Dec-18 08:26N 29°57' W 090°01'0 0.0
2014-Dec-18 07:20N 29°57' W 090°01'0 0.0
2014-Dec-18 06:20N 29°57' W 090°01'0 0.0
2014-Dec-18 04:11N 29°57' W 090°01'0 0.0
2014-Dec-17 23:20N 29°57' W 090°01'0 0.0
2014-Dec-17 22:32N 29°57' W 090°01'2 0.5
2014-Dec-17 18:33N 29°57' W 090°03'2 0.3
2014-Dec-17 11:23N 29°57' W 090°01'0 0.0
2014-Dec-17 10:19N 29°57' W 090°01'1 0.5
2014-Dec-17 08:03N 29°57' W 089°60'0 0.0
2014-Dec-17 03:33N 29°57' W 089°60'3 0.5
2014-Dec-16 22:28N 29°57' W 090°03'7 2.2
2014-Dec-16 19:28N 29°55' W 089°56'1 0.1
2014-Dec-16 11:17N 29°55' W 089°57'9 0.6
2014-Dec-15 18:33N 29°55' W 090°08'6 0.9
2014-Dec-15 11:18N 29°57' W 090°01'0 0.0
2014-Dec-15 10:27N 29°57' W 090°01'4 1.1
2014-Dec-15 07:03N 29°55' W 089°57'0 0.0
2014-Dec-15 05:33N 29°55' W 089°57'3 0.5
2014-Dec-14 23:33N 29°57' W 090°00'1 0.4
2014-Dec-14 19:33N 29°57' W 090°02'3 2.0
2014-Dec-14 18:10N 29°56' W 089°59'3 0.7
2014-Dec-14 13:15N 29°58' W 090°02'0 0.0
2014-Dec-14 11:14N 29°58' W 090°02'5 0.8
2014-Dec-14 04:17N 29°55' W 089°57'3 1.3
2014-Dec-14 02:08N 29°54' W 089°54'2 0.5
2014-Dec-13 22:17N 29°55' W 089°56'0 0.4
2014-Dec-13 21:21N 29°55' W 089°56'6 1.9
2014-Dec-13 18:21N 29°58' W 090°02'0 0.0
2014-Dec-13 17:24N 29°58' W 090°02'0 0.0
2014-Dec-13 16:33N 29°58' W 090°02'0 0.0
2014-Dec-13 15:27N 29°58' W 090°02'0 0.0
2014-Dec-13 14:33N 29°58' W 090°02'0 0.0
2014-Dec-13 12:21N 29°58' W 090°02'0 0.0
2014-Dec-13 11:03N 29°58' W 090°02'4 8.8
2014-Dec-13 10:33N 29°55' W 089°58'4 2.1
2014-Dec-13 08:30N 29°52' W 089°55'8 8.7
2014-Dec-13 07:32N 29°58' W 090°02'0 0.0
2014-Dec-12 23:21N 29°58' W 090°02'0 0.0
2014-Dec-12 19:21N 29°58' W 090°02'0 0.0
2014-Dec-12 18:15N 29°58' W 090°02'0 0.0
2014-Dec-12 16:03N 29°58' W 090°02'0 0.0
2014-Dec-12 15:06N 29°58' W 090°02'0 0.0
2014-Dec-12 12:27N 29°58' W 090°02'2 0.9
2014-Dec-12 10:29N 29°56' W 090°03'2 1.7
2014-Dec-12 09:27N 29°57' W 090°02'1 0.5
2014-Dec-12 08:15N 29°57' W 090°01'0 0.0
2014-Dec-12 07:33N 29°57' W 090°01'0 0.0
2014-Dec-12 06:27N 29°57' W 090°01'0 0.0
2014-Dec-12 05:27N 29°57' W 090°01'0 0.0
2014-Dec-12 04:15N 29°57' W 090°01'0 0.0
2014-Dec-12 02:06N 29°57' W 090°01'0 0.0
2014-Dec-12 01:12N 29°57' W 090°01'2 0.5
2014-Dec-11 21:04N 29°56' W 089°59'5 1.8
2014-Dec-11 18:21N 29°54' W 089°54'2 0.4
2014-Dec-11 12:14N 29°52' W 089°56'4 5.8
2014-Dec-11 11:33N 29°55' W 089°58'0 0.4
2014-Dec-11 10:21N 29°56' W 089°59'0 0.0
2014-Dec-11 09:21N 29°56' W 089°59'2 2.8
2014-Dec-11 08:31N 29°57' W 090°01'0 0.0
2014-Dec-11 06:22N 29°57' W 090°01'0 0.0
2014-Dec-11 04:13N 29°57' W 090°01'0 0.0
2014-Dec-11 03:19N 29°57' W 090°01'0 0.0
2014-Dec-11 02:28N 29°57' W 090°01'0 0.0
2014-Dec-10 23:07N 29°57' W 090°01'0 0.0
2014-Dec-10 19:09N 29°57' W 090°01'4 2.2
2014-Dec-10 17:16N 29°55' W 089°57'2 2.1
2014-Dec-10 16:30N 29°56' W 089°58'3 0.2
2014-Dec-10 05:18N 29°57' W 090°01'6 2.0
2014-Dec-10 02:26N 29°53' W 089°57'  

Dump ship's entire track history